Battle Ground, IN (47920)

6:29 AM EDT on May 29, 2015 (GMT -0400)
Prophet's Ridge | | Change Station
CLOSE
Current Station
Personal Weather Station
Location: West Lafayette, IN
Elevation: 679 ft
Nearby Weather Stations

Elev 679 ft 40.48 °N, 86.89 °W | Updated 36 seconds ago

Clear
Clear
66.0 °F
Feels Like 66.0 °F
N
3.0
Wind Variable Wind from ESE
Gusts 5.0 mph

Today
High -- | Low -- °F
--% Chance of Precip.
Yesterday
High -- | Low -- °F
Precip. -- in
6:20 AM 9:09 PM
Waxing Gibbous, 82% visible
Pressure 30.06 in
Visibility 6.0 miles
Clouds Clear
Dew Point 62 °F
Humidity 88%
Rainfall 0.00 in
Snow Depth Not available.
UV 0 out of 12
Pollen 8.40 out of 12
Air Quality Not available.
Flu Activity Sporadic
METAR KLAF 290954Z AUTO 12004KT 6SM BR CLR 18/17 A3007 RMK AO2 SLP178 T01780167

More Conditions Fewer Conditions

Pressure 30.06 in
Visibility 6.0 miles
Clouds Clear
Dew Point 62 °F
Humidity 88%
Rainfall 0.00 in
Snow Depth Not available.
UV 0 out of 12
Pollen 8.40 out of 12
Air Quality Not available.
Flu Activity Sporadic
METAR KLAF 290954Z AUTO 12004KT 6SM BR CLR 18/17 A3007 RMK AO2 SLP178 T01780167

More Conditions Fewer Conditions

10-Day Weather Forecast

Almanac

Astronomy

May. 29, 2015 Rise Set
Actual Time
Civil Twilight
Nautical Twilight
Astronomical Twilight
Moon
Length of Visible Light
Length of Day
Tomorrow will be .
, % of the Moon is Illuminated

Today's Extremes

State Highs State Lows

Community

WunderPhotos

Upload Photos

1,825,228 photos uploaded!

WunderBlogs® & News

Nearby

Air Quality

  Air Quality AQ Index Pollutant
Not available.

Snow Depth

Station Depth Elevation

Earthquake Activity

City Distance Mag. Time & Date
Minimum magnitude displayed is 2.5.

Coastal Water Temperatures

Place Temperature

Stations

Nearby Weather Stations

Station Location Temp. Windchill Dew Point Humidity Wind Precip. Elev Updated Type